KDYR  Dyersburg Regional Airport

Add Bookmark

Dyersburg, Tennessee, United States

Status Useage
Operational Public
Latitude Longitude
35° 59' 52" N 89° 24' 23" W
35.997972 -89.406583
Local (DST -5) UTC (GMT -6)
Sep 1, 2014 11:17 Sep 2, 2014 04:17
Sunrise-Sunset Local UTC
Begin Civil Twilight 06:02 11:02
Sunrise 06:28 11:28
Sunset 07:25 00:25
End Civil Twilight 07:52 00:52

Current Weather

METAR Observed VFR
KDYR 020355Z 00000KT 10SM CLR 26/18 A2998 Tue, Sep 2, 2014 @ 03:55 UTC
(22 Minutes ago)
Visual Flight Rules
Wind Visibility Clouds Conditions
Calm 10 statute miles
  • Clear skies
  • No significant weather
Temperatures Readings Precipitation
Current Temp 26°C (79°F)
Dewpoint 18°C (64°F)
Humidity 61%
Altimeter 29.98"Hg
Sea Level Pressure 1015mb
Field Elevation 337'
None Recorded

Additional weather within a 50nm radius of KDYR

Map ICAO Location
KHKA 20.9nm W (261°)
KUCY 30.7nm N (042°)
KMKL 33.8nm S (135°)
KNQA 44.6nm S (211°)

24 Hour Weather History

Loading
-

24 Hour Weather Graphs

Loading
-

CheckWX.com is intended as a tool to help pilots better visualize weather data. It is not intended as a substitute for an official weather briefing obtained from a Flight Service Station. CheckWX.com does not meet the FAA requirements for an official pre-flight weather briefing. Therefore, it's important that pilots still call and obtain an official FSS pre-flight weather briefing.